METAR AND TAF INFORMATION
METAR FOR KBOS
ADDS - METARS form results

(1624 UTC 22 April 2018)
Data provider http://aviationweather.gov/adds/metars/
 
METAR text: KBOS 221554Z 28014G20KT 10SM CLR 13/M08 A3034 RMK AO2 SLP273 T01331083
Conditions at: KBOS (BOSTON , MA, US) observed 1554 UTC 22 April 2018
Temperature: 13.3°C (56°F)
Dewpoint: -8.3°C (17°F) [RH = 21%]
Pressure (altimeter): 30.34 inches Hg (1027.5 mb)
[Sea-level pressure: 1027.3 mb]
Winds: from the W (280 degrees) at 16 MPH (14 knots; 7.3 m/s)
gusting to 23 MPH (20 knots; 10.4 m/s)
Visibility: 10 or more miles (16+ km)
Ceiling: at least 12,000 feet AGL
Clouds: sky clear below 12,000 feet AGL
Weather: no significant weather observed at this time

Forecast for: KBOS (BOSTON , MA, US)
Text: KBOS 221511Z 2215/2318 30010G18KT P6SM SKC
Forecast period: 1500 to 1900 UTC 22 April 2018
Forecast type: FROM: standard forecast or significant change
Winds: from the WNW (300 degrees) at 12 MPH (10 knots; 5.2 m/s)
gusting to 21 MPH (18 knots; 9.4 m/s)
Visibility: 6 or more miles (10+ km)
Clouds: clear skies
Weather: no significant weather forecast for this period
Forecast for: KBOS (BOSTON , MA, US)
Text: KBOS 221511Z 2215/2318 30010G18KT P6SM SKC
Forecast period: 1500 to 1900 UTC 22 April 2018
Forecast type: FROM: standard forecast or significant change
Winds: from the WNW (300 degrees) at 12 MPH (10 knots; 5.2 m/s)
gusting to 21 MPH (18 knots; 9.4 m/s)
Visibility: 6 or more miles (10+ km)
Clouds: clear skies
Weather: no significant weather forecast for this period
Forecast for: KBOS (BOSTON , MA, US)
Text: KBOS 221511Z 2215/2318 30010G18KT P6SM SKC
Forecast period: 1900 UTC 22 April 2018 to 0200 UTC 23 April 2018
Forecast type: FROM: standard forecast or significant change
Winds: from the N (360 degrees) at 12 MPH (10 knots; 5.2 m/s)
Visibility: 6 or more miles (10+ km)
Clouds: clear skies
Weather: no significant weather forecast for this period
Forecast for: KBOS (BOSTON , MA, US)
Text: KBOS 221511Z 2215/2318 30010G18KT P6SM SKC
Forecast period: 1900 UTC 22 April 2018 to 0200 UTC 23 April 2018
Forecast type: FROM: standard forecast or significant change
Winds: from the N (360 degrees) at 12 MPH (10 knots; 5.2 m/s)
Visibility: 6 or more miles (10+ km)
Clouds: clear skies
Weather: no significant weather forecast for this period
Forecast for: KBOS (BOSTON , MA, US)
Text: KBOS 221511Z 2215/2318 30010G18KT P6SM SKC
Forecast period: 0200 to 1800 UTC 23 April 2018
Forecast type: FROM: standard forecast or significant change
Winds: from the WNW (300 degrees) at 8 MPH (7 knots; 3.6 m/s)
Visibility: 6 or more miles (10+ km)
Clouds: clear skies
Weather: no significant weather forecast for this period
Forecast for: KBOS (BOSTON , MA, US)
Text: KBOS 221511Z 2215/2318 30010G18KT P6SM SKC
Forecast period: 0200 to 1800 UTC 23 April 2018
Forecast type: FROM: standard forecast or significant change
Winds: from the WNW (300 degrees) at 8 MPH (7 knots; 3.6 m/s)
Visibility: 6 or more miles (10+ km)
Clouds: clear skies
Weather: no significant weather forecast for this period

 AIRPORT MAP

 RUNWAY INFORMATION
Runway 04L Runway length 7861 ft Runway width 150 ft
Runway elevation 14 ft Runway displaced threshold 0 ft Runway heading 20
Runway 22R Runway length 7861 ft Runway width 150 ft
Runway elevation 15 ft Runway displaced threshold 815 ft Runway heading 200
Runway 04R Runway length 10005 ft Runway width 150 ft
Runway elevation 18 ft Runway displaced threshold 1154 ft Runway heading 20
Runway 22L Runway length 10005 ft Runway width 150 ft
Runway elevation 16 ft Runway displaced threshold 1199 ft Runway heading 200
Runway 09 Runway length 7000 ft Runway width 150 ft
Runway elevation 17 ft Runway displaced threshold 0 ft Runway heading 77
Runway 27 Runway length 7000 ft Runway width 150 ft
Runway elevation 15 ft Runway displaced threshold 0 ft Runway heading 257
Runway 14 Runway length 5000 ft Runway width 100 ft
Runway elevation 17 ft Runway displaced threshold 0 ft Runway heading 125
Runway 32 Runway length 5000 ft Runway width 100 ft
Runway elevation 20 ft Runway displaced threshold 0 ft Runway heading 305
Runway 15L Runway length 2557 ft Runway width 100 ft
Runway elevation 15 ft Runway displaced threshold 0 ft Runway heading 135
Runway 33R Runway length 2557 ft Runway width 100 ft
Runway elevation 14 ft Runway displaced threshold 0 ft Runway heading 315
Runway 15R Runway length 10083 ft Runway width 150 ft
Runway elevation 17 ft Runway displaced threshold 880 ft Runway heading 135
Runway 33L Runway length 10083 ft Runway width 150 ft
Runway elevation 15 ft Runway displaced threshold 0 ft Runway heading 315

 AIRPORT FREQUENCIES
Type APP Name BOSTON APP Frequency 118.25 MHZ
Type ATIS Name ATIS Frequency 135 MHZ
Type CLD Name CLNC DEL Frequency 121.65 MHZ
Type DEP Name BOSTON DEP Frequency 133 MHZ
Type GND Name GND Frequency 121.9 MHZ
Type GTE Name GATE Frequency 134.05 MHZ
Type RDO Name BRIDGEPORT Frequency 122.4 MHZ
Type TWR Name BOSTON TWR Frequency 124.725 MHZ
Type UNIC Name UNICOM Frequency 122.95 MHZ

 AIRPORT NEAR NAVIGATION AIDS
Type NDB Name Miltt Frequency 375 KHZ
Type VORTAC Name Boston Frequency 112700 KHZ
Type NDB Name Hullz Frequency 346 KHZ
Type NDB Name Lyndy Frequency 382 KHZ



Powered by Virtual Airlines Manager [v2.6.2]